Garfield, Arkansas
Current Conditions -  °F | °C
As of 7:57 AM on Wednesday 28 Jan 2015 (Local Time) from KROG Reporting Station
Clear Clear  
Wind Chill: 39°   Ceiling: Unl
Heat Index: 43°   Visibility: 10mi
Dew Point: 34°   Wind: 7mph
Humidity: 71%   Direction: 130°SE
Pressure: 30.1"   Gusts: NA
Location:  36.45°N, 93.97°W
Report Text: KROG 281357Z 13006KT 10SM CLR 06/01 A3010 RMK AO2 SLP194 T00610011
Loading
Personal Weather Stations






























Interactive Weather Map New forecast layout! Learn more

10-Day Weather Forecast

Advertisements
Track Severe Weather on mobile